sensor_id;sensor_type;location;lat;lon;timestamp;P1;durP1;ratioP1;P2;durP2;ratioP2
39994;SDS011;25686;51.908;10.418;2023-09-08T00:01:27;8.38;;;6.13;;
39994;SDS011;25686;51.908;10.418;2023-09-08T00:03:28;8.68;;;5.80;;
39994;SDS011;25686;51.908;10.418;2023-09-08T00:05:29;10.38;;;5.80;;
39994;SDS011;25686;51.908;10.418;2023-09-08T00:07:30;7.78;;;5.80;;
39994;SDS011;25686;51.908;10.418;2023-09-08T00:09:30;7.47;;;6.13;;
39994;SDS011;25686;51.908;10.418;2023-09-08T00:11:31;7.22;;;5.45;;
39994;SDS011;25686;51.908;10.418;2023-09-08T00:13:32;10.57;;;5.60;;
39994;SDS011;25686;51.908;10.418;2023-09-08T00:15:34;7.47;;;5.70;;
39994;SDS011;25686;51.908;10.418;2023-09-08T00:17:35;9.07;;;5.47;;
39994;SDS011;25686;51.908;10.418;2023-09-08T00:19:36;8.60;;;5.70;;
39994;SDS011;25686;51.908;10.418;2023-09-08T00:21:38;7.90;;;5.63;;
39994;SDS011;25686;51.908;10.418;2023-09-08T00:23:39;7.35;;;5.53;;
39994;SDS011;25686;51.908;10.418;2023-09-08T00:25:40;9.85;;;6.00;;
39994;SDS011;25686;51.908;10.418;2023-09-08T00:27:41;8.65;;;6.07;;
39994;SDS011;25686;51.908;10.418;2023-09-08T00:29:42;7.55;;;5.50;;
39994;SDS011;25686;51.908;10.418;2023-09-08T00:31:43;10.05;;;6.10;;
39994;SDS011;25686;51.908;10.418;2023-09-08T00:33:44;8.75;;;5.45;;
39994;SDS011;25686;51.908;10.418;2023-09-08T00:35:45;7.55;;;5.72;;
39994;SDS011;25686;51.908;10.418;2023-09-08T00:37:49;9.48;;;5.80;;
39994;SDS011;25686;51.908;10.418;2023-09-08T00:39:50;9.55;;;6.03;;
39994;SDS011;25686;51.908;10.418;2023-09-08T00:41:51;9.57;;;6.07;;
39994;SDS011;25686;51.908;10.418;2023-09-08T00:43:52;8.05;;;6.28;;
39994;SDS011;25686;51.908;10.418;2023-09-08T00:45:53;9.25;;;5.90;;
39994;SDS011;25686;51.908;10.418;2023-09-08T00:47:54;9.40;;;6.07;;
39994;SDS011;25686;51.908;10.418;2023-09-08T00:49:55;10.35;;;5.80;;
39994;SDS011;25686;51.908;10.418;2023-09-08T00:51:56;7.47;;;5.95;;
39994;SDS011;25686;51.908;10.418;2023-09-08T00:53:57;13.32;;;6.28;;
39994;SDS011;25686;51.908;10.418;2023-09-08T00:55:58;11.65;;;6.35;;
39994;SDS011;25686;51.908;10.418;2023-09-08T00:58:00;9.32;;;6.22;;
39994;SDS011;25686;51.908;10.418;2023-09-08T01:00:01;11.40;;;6.47;;
39994;SDS011;25686;51.908;10.418;2023-09-08T01:02:05;10.68;;;6.65;;
39994;SDS011;25686;51.908;10.418;2023-09-08T01:04:06;8.25;;;6.20;;
39994;SDS011;25686;51.908;10.418;2023-09-08T01:06:07;7.45;;;6.00;;
39994;SDS011;25686;51.908;10.418;2023-09-08T01:08:08;13.00;;;6.25;;
39994;SDS011;25686;51.908;10.418;2023-09-08T01:10:10;9.45;;;6.45;;
39994;SDS011;25686;51.908;10.418;2023-09-08T01:12:11;8.55;;;6.13;;
39994;SDS011;25686;51.908;10.418;2023-09-08T01:14:12;7.88;;;6.07;;
39994;SDS011;25686;51.908;10.418;2023-09-08T01:16:13;10.50;;;6.32;;
39994;SDS011;25686;51.908;10.418;2023-09-08T01:18:14;8.93;;;6.63;;
39994;SDS011;25686;51.908;10.418;2023-09-08T01:20:20;10.00;;;6.70;;
39994;SDS011;25686;51.908;10.418;2023-09-08T01:22:40;10.30;;;6.28;;
39994;SDS011;25686;51.908;10.418;2023-09-08T01:26:58;11.57;;;6.97;;
39994;SDS011;25686;51.908;10.418;2023-09-08T01:28:59;15.40;;;7.07;;
39994;SDS011;25686;51.908;10.418;2023-09-08T01:31:01;14.05;;;6.68;;
39994;SDS011;25686;51.908;10.418;2023-09-08T01:33:02;9.63;;;6.45;;
39994;SDS011;25686;51.908;10.418;2023-09-08T01:35:03;8.60;;;6.50;;
39994;SDS011;25686;51.908;10.418;2023-09-08T01:37:05;9.80;;;7.03;;
39994;SDS011;25686;51.908;10.418;2023-09-08T01:39:07;13.02;;;7.30;;
39994;SDS011;25686;51.908;10.418;2023-09-08T01:41:09;11.43;;;7.53;;
39994;SDS011;25686;51.908;10.418;2023-09-08T01:43:10;10.35;;;6.75;;
39994;SDS011;25686;51.908;10.418;2023-09-08T01:45:11;9.18;;;6.78;;
39994;SDS011;25686;51.908;10.418;2023-09-08T01:47:12;9.85;;;6.72;;
39994;SDS011;25686;51.908;10.418;2023-09-08T01:49:13;10.00;;;7.30;;
39994;SDS011;25686;51.908;10.418;2023-09-08T01:51:13;10.05;;;7.03;;
39994;SDS011;25686;51.908;10.418;2023-09-08T01:53:14;7.60;;;6.40;;
39994;SDS011;25686;51.908;10.418;2023-09-08T01:55:15;13.98;;;7.38;;
39994;SDS011;25686;51.908;10.418;2023-09-08T01:57:17;10.23;;;6.93;;
39994;SDS011;25686;51.908;10.418;2023-09-08T01:59:18;10.00;;;6.85;;
39994;SDS011;25686;51.908;10.418;2023-09-08T02:01:19;8.70;;;7.60;;
39994;SDS011;25686;51.908;10.418;2023-09-08T02:03:20;10.07;;;7.13;;
39994;SDS011;25686;51.908;10.418;2023-09-08T02:05:21;10.82;;;6.97;;
39994;SDS011;25686;51.908;10.418;2023-09-08T02:07:22;10.75;;;6.85;;
39994;SDS011;25686;51.908;10.418;2023-09-08T02:09:29;11.35;;;7.35;;
39994;SDS011;25686;51.908;10.418;2023-09-08T02:11:30;9.65;;;6.47;;
39994;SDS011;25686;51.908;10.418;2023-09-08T02:13:31;8.80;;;6.80;;
39994;SDS011;25686;51.908;10.418;2023-09-08T02:15:34;9.57;;;6.90;;
39994;SDS011;25686;51.908;10.418;2023-09-08T02:17:35;14.60;;;7.25;;
39994;SDS011;25686;51.908;10.418;2023-09-08T02:19:36;8.15;;;6.47;;
39994;SDS011;25686;51.908;10.418;2023-09-08T02:21:37;13.80;;;7.07;;
39994;SDS011;25686;51.908;10.418;2023-09-08T02:23:38;9.90;;;6.45;;
39994;SDS011;25686;51.908;10.418;2023-09-08T02:25:39;12.30;;;7.05;;
39994;SDS011;25686;51.908;10.418;2023-09-08T02:27:40;15.73;;;7.43;;
39994;SDS011;25686;51.908;10.418;2023-09-08T02:29:41;13.57;;;7.60;;
39994;SDS011;25686;51.908;10.418;2023-09-08T02:31:41;8.07;;;6.80;;
39994;SDS011;25686;51.908;10.418;2023-09-08T02:33:43;12.70;;;7.15;;
39994;SDS011;25686;51.908;10.418;2023-09-08T02:35:44;11.18;;;7.30;;
39994;SDS011;25686;51.908;10.418;2023-09-08T02:37:45;14.23;;;7.38;;
39994;SDS011;25686;51.908;10.418;2023-09-08T02:39:46;9.50;;;7.18;;
39994;SDS011;25686;51.908;10.418;2023-09-08T02:41:47;11.38;;;7.82;;
39994;SDS011;25686;51.908;10.418;2023-09-08T02:43:48;10.57;;;7.05;;
39994;SDS011;25686;51.908;10.418;2023-09-08T02:45:49;11.93;;;7.53;;
39994;SDS011;25686;51.908;10.418;2023-09-08T02:47:50;10.52;;;7.20;;
39994;SDS011;25686;51.908;10.418;2023-09-08T02:49:51;11.95;;;7.25;;
39994;SDS011;25686;51.908;10.418;2023-09-08T02:51:52;11.88;;;6.95;;
39994;SDS011;25686;51.908;10.418;2023-09-08T02:53:53;9.25;;;6.97;;
39994;SDS011;25686;51.908;10.418;2023-09-08T02:55:54;10.38;;;7.38;;
39994;SDS011;25686;51.908;10.418;2023-09-08T02:57:56;12.10;;;7.22;;
39994;SDS011;25686;51.908;10.418;2023-09-08T02:59:57;9.10;;;7.00;;
39994;SDS011;25686;51.908;10.418;2023-09-08T03:01:59;8.80;;;6.90;;
39994;SDS011;25686;51.908;10.418;2023-09-08T03:04:00;9.48;;;7.15;;
39994;SDS011;25686;51.908;10.418;2023-09-08T03:06:01;11.98;;;7.35;;
39994;SDS011;25686;51.908;10.418;2023-09-08T03:08:03;11.50;;;6.47;;
39994;SDS011;25686;51.908;10.418;2023-09-08T03:10:05;9.70;;;6.95;;
39994;SDS011;25686;51.908;10.418;2023-09-08T03:12:06;10.80;;;6.78;;
39994;SDS011;25686;51.908;10.418;2023-09-08T03:14:07;11.73;;;6.50;;
39994;SDS011;25686;51.908;10.418;2023-09-08T03:16:08;7.35;;;6.10;;
39994;SDS011;25686;51.908;10.418;2023-09-08T03:18:10;7.68;;;5.95;;
39994;SDS011;25686;51.908;10.418;2023-09-08T03:20:11;8.27;;;6.57;;
39994;SDS011;25686;51.908;10.418;2023-09-08T03:22:13;11.55;;;6.55;;
39994;SDS011;25686;51.908;10.418;2023-09-08T03:24:14;8.20;;;6.75;;
39994;SDS011;25686;51.908;10.418;2023-09-08T03:26:15;10.82;;;6.45;;
39994;SDS011;25686;51.908;10.418;2023-09-08T03:28:16;11.27;;;6.57;;
39994;SDS011;25686;51.908;10.418;2023-09-08T03:30:17;6.85;;;5.95;;
39994;SDS011;25686;51.908;10.418;2023-09-08T03:32:18;7.78;;;6.47;;
39994;SDS011;25686;51.908;10.418;2023-09-08T03:34:19;8.85;;;6.80;;
39994;SDS011;25686;51.908;10.418;2023-09-08T03:36:20;8.80;;;6.47;;
39994;SDS011;25686;51.908;10.418;2023-09-08T03:38:21;9.82;;;6.47;;
39994;SDS011;25686;51.908;10.418;2023-09-08T03:40:22;9.02;;;6.47;;
39994;SDS011;25686;51.908;10.418;2023-09-08T03:42:23;11.85;;;6.70;;
39994;SDS011;25686;51.908;10.418;2023-09-08T03:44:24;9.73;;;6.22;;
39994;SDS011;25686;51.908;10.418;2023-09-08T03:46:25;7.38;;;6.10;;
39994;SDS011;25686;51.908;10.418;2023-09-08T03:48:26;7.25;;;6.13;;
39994;SDS011;25686;51.908;10.418;2023-09-08T03:50:27;9.98;;;5.70;;
39994;SDS011;25686;51.908;10.418;2023-09-08T03:52:28;9.32;;;6.55;;
39994;SDS011;25686;51.908;10.418;2023-09-08T03:54:29;8.45;;;6.10;;
39994;SDS011;25686;51.908;10.418;2023-09-08T03:56:30;8.93;;;6.25;;
39994;SDS011;25686;51.908;10.418;2023-09-08T03:58:31;10.93;;;6.07;;
39994;SDS011;25686;51.908;10.418;2023-09-08T04:00:32;7.07;;;5.70;;
39994;SDS011;25686;51.908;10.418;2023-09-08T04:02:33;8.27;;;6.03;;
39994;SDS011;25686;51.908;10.418;2023-09-08T04:04:34;6.90;;;5.95;;
39994;SDS011;25686;51.908;10.418;2023-09-08T04:06:35;6.68;;;5.80;;
39994;SDS011;25686;51.908;10.418;2023-09-08T04:08:36;6.70;;;5.47;;
39994;SDS011;25686;51.908;10.418;2023-09-08T04:10:37;8.25;;;5.50;;
39994;SDS011;25686;51.908;10.418;2023-09-08T04:12:38;7.45;;;6.00;;
39994;SDS011;25686;51.908;10.418;2023-09-08T04:14:39;8.77;;;5.78;;
39994;SDS011;25686;51.908;10.418;2023-09-08T04:16:40;8.02;;;5.80;;
39994;SDS011;25686;51.908;10.418;2023-09-08T04:18:41;7.45;;;6.03;;
39994;SDS011;25686;51.908;10.418;2023-09-08T04:20:42;8.70;;;5.40;;
39994;SDS011;25686;51.908;10.418;2023-09-08T04:22:43;7.43;;;5.70;;
39994;SDS011;25686;51.908;10.418;2023-09-08T04:24:44;6.80;;;5.82;;
39994;SDS011;25686;51.908;10.418;2023-09-08T04:26:45;6.20;;;5.35;;
39994;SDS011;25686;51.908;10.418;2023-09-08T04:28:46;7.45;;;5.75;;
39994;SDS011;25686;51.908;10.418;2023-09-08T04:30:47;6.53;;;5.43;;
39994;SDS011;25686;51.908;10.418;2023-09-08T04:32:48;6.93;;;4.75;;
39994;SDS011;25686;51.908;10.418;2023-09-08T04:34:49;10.85;;;5.40;;
39994;SDS011;25686;51.908;10.418;2023-09-08T04:36:50;6.10;;;5.28;;
39994;SDS011;25686;51.908;10.418;2023-09-08T04:38:51;7.55;;;5.70;;
39994;SDS011;25686;51.908;10.418;2023-09-08T04:40:52;7.65;;;5.10;;
39994;SDS011;25686;51.908;10.418;2023-09-08T04:42:53;9.43;;;5.72;;
39994;SDS011;25686;51.908;10.418;2023-09-08T04:44:54;6.93;;;5.65;;
39994;SDS011;25686;51.908;10.418;2023-09-08T04:46:54;10.27;;;5.88;;
39994;SDS011;25686;51.908;10.418;2023-09-08T04:48:55;6.78;;;5.50;;
39994;SDS011;25686;51.908;10.418;2023-09-08T04:50:56;8.95;;;5.53;;
39994;SDS011;25686;51.908;10.418;2023-09-08T04:52:57;7.95;;;5.40;;
39994;SDS011;25686;51.908;10.418;2023-09-08T04:54:58;7.00;;;5.57;;
39994;SDS011;25686;51.908;10.418;2023-09-08T04:56:59;12.32;;;5.75;;
39994;SDS011;25686;51.908;10.418;2023-09-08T04:59:00;8.63;;;5.80;;
39994;SDS011;25686;51.908;10.418;2023-09-08T05:01:02;8.20;;;5.93;;
39994;SDS011;25686;51.908;10.418;2023-09-08T05:03:03;11.77;;;5.72;;
39994;SDS011;25686;51.908;10.418;2023-09-08T05:05:04;9.68;;;5.28;;
39994;SDS011;25686;51.908;10.418;2023-09-08T05:07:05;7.05;;;5.57;;
39994;SDS011;25686;51.908;10.418;2023-09-08T05:09:06;9.32;;;5.75;;
39994;SDS011;25686;51.908;10.418;2023-09-08T05:11:07;7.75;;;5.15;;
39994;SDS011;25686;51.908;10.418;2023-09-08T05:13:08;8.32;;;5.47;;
39994;SDS011;25686;51.908;10.418;2023-09-08T05:15:09;6.28;;;5.20;;
39994;SDS011;25686;51.908;10.418;2023-09-08T05:17:14;6.38;;;5.55;;
39994;SDS011;25686;51.908;10.418;2023-09-08T05:19:15;7.53;;;5.50;;
39994;SDS011;25686;51.908;10.418;2023-09-08T05:21:16;6.72;;;5.45;;
39994;SDS011;25686;51.908;10.418;2023-09-08T05:23:17;9.88;;;5.75;;
39994;SDS011;25686;51.908;10.418;2023-09-08T05:25:18;7.65;;;5.07;;
39994;SDS011;25686;51.908;10.418;2023-09-08T05:27:19;6.05;;;5.43;;
39994;SDS011;25686;51.908;10.418;2023-09-08T05:29:20;6.57;;;5.28;;
39994;SDS011;25686;51.908;10.418;2023-09-08T05:31:21;9.52;;;5.40;;
39994;SDS011;25686;51.908;10.418;2023-09-08T05:33:22;8.30;;;5.35;;
39994;SDS011;25686;51.908;10.418;2023-09-08T05:35:23;11.73;;;5.45;;
39994;SDS011;25686;51.908;10.418;2023-09-08T05:37:24;7.00;;;5.78;;
39994;SDS011;25686;51.908;10.418;2023-09-08T05:39:25;8.95;;;5.20;;
39994;SDS011;25686;51.908;10.418;2023-09-08T05:41:26;7.30;;;5.60;;
39994;SDS011;25686;51.908;10.418;2023-09-08T05:43:27;10.73;;;5.40;;
39994;SDS011;25686;51.908;10.418;2023-09-08T05:45:28;8.15;;;5.72;;
39994;SDS011;25686;51.908;10.418;2023-09-08T05:47:31;5.97;;;4.75;;
39994;SDS011;25686;51.908;10.418;2023-09-08T05:49:32;10.52;;;5.30;;
39994;SDS011;25686;51.908;10.418;2023-09-08T05:51:33;8.55;;;5.47;;
39994;SDS011;25686;51.908;10.418;2023-09-08T05:53:33;9.40;;;5.32;;
39994;SDS011;25686;51.908;10.418;2023-09-08T05:55:35;6.00;;;4.97;;
39994;SDS011;25686;51.908;10.418;2023-09-08T05:57:36;8.70;;;5.30;;
39994;SDS011;25686;51.908;10.418;2023-09-08T05:59:37;6.03;;;5.10;;
39994;SDS011;25686;51.908;10.418;2023-09-08T06:01:38;8.52;;;5.25;;
39994;SDS011;25686;51.908;10.418;2023-09-08T06:03:39;6.60;;;5.15;;
39994;SDS011;25686;51.908;10.418;2023-09-08T06:05:40;6.40;;;4.65;;
39994;SDS011;25686;51.908;10.418;2023-09-08T06:07:41;9.18;;;4.95;;
39994;SDS011;25686;51.908;10.418;2023-09-08T06:09:42;5.30;;;4.70;;
39994;SDS011;25686;51.908;10.418;2023-09-08T06:11:43;8.32;;;4.55;;
39994;SDS011;25686;51.908;10.418;2023-09-08T06:13:46;9.80;;;4.78;;
39994;SDS011;25686;51.908;10.418;2023-09-08T06:15:47;9.60;;;5.00;;
39994;SDS011;25686;51.908;10.418;2023-09-08T06:17:48;6.90;;;5.07;;
39994;SDS011;25686;51.908;10.418;2023-09-08T06:19:49;9.05;;;4.50;;
39994;SDS011;25686;51.908;10.418;2023-09-08T06:21:50;6.88;;;4.85;;
39994;SDS011;25686;51.908;10.418;2023-09-08T06:23:51;5.85;;;4.82;;
39994;SDS011;25686;51.908;10.418;2023-09-08T06:25:56;5.82;;;4.95;;
39994;SDS011;25686;51.908;10.418;2023-09-08T06:27:59;8.27;;;4.35;;
39994;SDS011;25686;51.908;10.418;2023-09-08T06:30:00;8.75;;;5.03;;
39994;SDS011;25686;51.908;10.418;2023-09-08T06:32:02;7.53;;;4.88;;
39994;SDS011;25686;51.908;10.418;2023-09-08T06:34:03;7.22;;;4.22;;
39994;SDS011;25686;51.908;10.418;2023-09-08T06:36:04;8.43;;;4.65;;
39994;SDS011;25686;51.908;10.418;2023-09-08T06:38:05;5.15;;;4.22;;
39994;SDS011;25686;51.908;10.418;2023-09-08T06:40:06;5.28;;;4.72;;
39994;SDS011;25686;51.908;10.418;2023-09-08T06:42:07;6.45;;;4.53;;
39994;SDS011;25686;51.908;10.418;2023-09-08T06:44:08;9.40;;;5.13;;
39994;SDS011;25686;51.908;10.418;2023-09-08T06:46:09;6.45;;;4.70;;
39994;SDS011;25686;51.908;10.418;2023-09-08T06:48:10;5.90;;;4.80;;
39994;SDS011;25686;51.908;10.418;2023-09-08T06:50:11;7.30;;;5.03;;
39994;SDS011;25686;51.908;10.418;2023-09-08T06:52:12;6.65;;;5.03;;
39994;SDS011;25686;51.908;10.418;2023-09-08T06:54:13;9.32;;;4.70;;
39994;SDS011;25686;51.908;10.418;2023-09-08T06:56:14;6.20;;;4.97;;
39994;SDS011;25686;51.908;10.418;2023-09-08T06:58:15;8.55;;;5.13;;
39994;SDS011;25686;51.908;10.418;2023-09-08T07:00:16;8.27;;;5.25;;
39994;SDS011;25686;51.908;10.418;2023-09-08T07:02:17;8.30;;;5.50;;
39994;SDS011;25686;51.908;10.418;2023-09-08T07:04:18;13.75;;;5.55;;
39994;SDS011;25686;51.908;10.418;2023-09-08T07:06:19;8.23;;;4.97;;
39994;SDS011;25686;51.908;10.418;2023-09-08T07:08:22;5.60;;;4.50;;
39994;SDS011;25686;51.908;10.418;2023-09-08T07:10:23;9.30;;;4.93;;
39994;SDS011;25686;51.908;10.418;2023-09-08T07:12:24;7.35;;;4.60;;
39994;SDS011;25686;51.908;10.418;2023-09-08T07:14:25;8.18;;;5.00;;
39994;SDS011;25686;51.908;10.418;2023-09-08T07:16:26;6.55;;;4.65;;
39994;SDS011;25686;51.908;10.418;2023-09-08T07:18:27;5.47;;;4.32;;
39994;SDS011;25686;51.908;10.418;2023-09-08T07:20:28;7.15;;;4.30;;
39994;SDS011;25686;51.908;10.418;2023-09-08T07:22:30;4.35;;;3.85;;
39994;SDS011;25686;51.908;10.418;2023-09-08T07:24:31;9.07;;;4.57;;
39994;SDS011;25686;51.908;10.418;2023-09-08T07:26:32;7.68;;;4.43;;
39994;SDS011;25686;51.908;10.418;2023-09-08T07:28:33;7.90;;;4.43;;
39994;SDS011;25686;51.908;10.418;2023-09-08T07:30:34;6.10;;;4.50;;
39994;SDS011;25686;51.908;10.418;2023-09-08T07:32:35;5.80;;;4.63;;
39994;SDS011;25686;51.908;10.418;2023-09-08T07:34:36;6.70;;;4.32;;
39994;SDS011;25686;51.908;10.418;2023-09-08T07:36:37;6.15;;;4.13;;
39994;SDS011;25686;51.908;10.418;2023-09-08T07:38:38;7.97;;;4.78;;
39994;SDS011;25686;51.908;10.418;2023-09-08T07:40:39;5.00;;;4.50;;
39994;SDS011;25686;51.908;10.418;2023-09-08T07:42:42;5.60;;;4.70;;
39994;SDS011;25686;51.908;10.418;2023-09-08T07:44:43;5.75;;;4.20;;
39994;SDS011;25686;51.908;10.418;2023-09-08T07:46:44;7.03;;;4.43;;
39994;SDS011;25686;51.908;10.418;2023-09-08T07:48:49;4.95;;;4.03;;
39994;SDS011;25686;51.908;10.418;2023-09-08T07:50:50;5.80;;;4.05;;
39994;SDS011;25686;51.908;10.418;2023-09-08T07:52:51;5.30;;;4.38;;
39994;SDS011;25686;51.908;10.418;2023-09-08T07:54:53;5.80;;;4.30;;
39994;SDS011;25686;51.908;10.418;2023-09-08T07:56:54;5.30;;;4.25;;
39994;SDS011;25686;51.908;10.418;2023-09-08T07:58:55;8.30;;;4.40;;
39994;SDS011;25686;51.908;10.418;2023-09-08T08:00:55;8.18;;;4.40;;
39994;SDS011;25686;51.908;10.418;2023-09-08T08:02:57;5.45;;;4.10;;
39994;SDS011;25686;51.908;10.418;2023-09-08T08:04:58;7.68;;;4.30;;
39994;SDS011;25686;51.908;10.418;2023-09-08T08:06:59;6.25;;;4.10;;
39994;SDS011;25686;51.908;10.418;2023-09-08T08:09:00;4.57;;;4.13;;
39994;SDS011;25686;51.908;10.418;2023-09-08T08:11:01;5.70;;;3.75;;
39994;SDS011;25686;51.908;10.418;2023-09-08T08:13:02;4.35;;;3.92;;
39994;SDS011;25686;51.908;10.418;2023-09-08T08:15:03;8.65;;;4.10;;
39994;SDS011;25686;51.908;10.418;2023-09-08T08:17:07;4.97;;;3.90;;
39994;SDS011;25686;51.908;10.418;2023-09-08T08:19:08;6.22;;;4.18;;
39994;SDS011;25686;51.908;10.418;2023-09-08T08:21:09;7.25;;;4.30;;
39994;SDS011;25686;51.908;10.418;2023-09-08T08:23:10;7.07;;;4.40;;
39994;SDS011;25686;51.908;10.418;2023-09-08T08:25:10;6.80;;;3.95;;
39994;SDS011;25686;51.908;10.418;2023-09-08T08:27:14;7.47;;;4.43;;
39994;SDS011;25686;51.908;10.418;2023-09-08T08:29:15;6.28;;;4.10;;
39994;SDS011;25686;51.908;10.418;2023-09-08T08:31:16;8.05;;;4.28;;
39994;SDS011;25686;51.908;10.418;2023-09-08T08:33:17;8.48;;;3.95;;
39994;SDS011;25686;51.908;10.418;2023-09-08T08:35:18;11.98;;;4.30;;
39994;SDS011;25686;51.908;10.418;2023-09-08T08:37:19;6.50;;;3.75;;
39994;SDS011;25686;51.908;10.418;2023-09-08T08:39:20;4.60;;;3.60;;
39994;SDS011;25686;51.908;10.418;2023-09-08T08:41:21;7.40;;;3.92;;
39994;SDS011;25686;51.908;10.418;2023-09-08T08:43:22;9.30;;;4.28;;
39994;SDS011;25686;51.908;10.418;2023-09-08T08:45:24;8.45;;;4.10;;
39994;SDS011;25686;51.908;10.418;2023-09-08T08:47:26;9.82;;;4.50;;
39994;SDS011;25686;51.908;10.418;2023-09-08T08:49:30;14.57;;;4.68;;
39994;SDS011;25686;51.908;10.418;2023-09-08T08:51:31;15.77;;;4.97;;
39994;SDS011;25686;51.908;10.418;2023-09-08T08:53:32;8.98;;;4.55;;
39994;SDS011;25686;51.908;10.418;2023-09-08T08:55:34;11.38;;;5.07;;
39994;SDS011;25686;51.908;10.418;2023-09-08T08:57:38;12.48;;;5.60;;
39994;SDS011;25686;51.908;10.418;2023-09-08T08:59:39;12.55;;;5.03;;
39994;SDS011;25686;51.908;10.418;2023-09-08T09:01:41;12.18;;;5.00;;
39994;SDS011;25686;51.908;10.418;2023-09-08T09:03:43;12.48;;;5.07;;
39994;SDS011;25686;51.908;10.418;2023-09-08T09:05:44;8.43;;;4.30;;
39994;SDS011;25686;51.908;10.418;2023-09-08T09:07:45;6.65;;;4.35;;
39994;SDS011;25686;51.908;10.418;2023-09-08T09:09:46;13.13;;;4.80;;
39994;SDS011;25686;51.908;10.418;2023-09-08T09:11:48;12.15;;;4.22;;
39994;SDS011;25686;51.908;10.418;2023-09-08T09:13:49;14.63;;;5.65;;
39994;SDS011;25686;51.908;10.418;2023-09-08T09:15:50;9.98;;;4.25;;
39994;SDS011;25686;51.908;10.418;2023-09-08T09:18:01;9.20;;;3.88;;
39994;SDS011;25686;51.908;10.418;2023-09-08T09:20:17;9.32;;;4.10;;
39994;SDS011;25686;51.908;10.418;2023-09-08T09:22:20;7.25;;;3.78;;
39994;SDS011;25686;51.908;10.418;2023-09-08T09:24:29;8.23;;;3.40;;
39994;SDS011;25686;51.908;10.418;2023-09-08T09:26:30;4.18;;;2.80;;
39994;SDS011;25686;51.908;10.418;2023-09-08T09:28:31;3.08;;;2.20;;
39994;SDS011;25686;51.908;10.418;2023-09-08T09:30:49;5.38;;;1.98;;
39994;SDS011;25686;51.908;10.418;2023-09-08T09:33:04;10.77;;;4.03;;
39994;SDS011;25686;51.908;10.418;2023-09-08T09:35:05;5.65;;;4.07;;
39994;SDS011;25686;51.908;10.418;2023-09-08T09:37:06;14.02;;;4.03;;
39994;SDS011;25686;51.908;10.418;2023-09-08T09:39:07;6.75;;;3.75;;
39994;SDS011;25686;51.908;10.418;2023-09-08T09:41:08;8.23;;;3.38;;
39994;SDS011;25686;51.908;10.418;2023-09-08T09:43:10;8.02;;;3.45;;
39994;SDS011;25686;51.908;10.418;2023-09-08T09:45:14;5.20;;;3.15;;
39994;SDS011;25686;51.908;10.418;2023-09-08T09:47:16;4.70;;;3.20;;
39994;SDS011;25686;51.908;10.418;2023-09-08T09:49:17;7.53;;;3.30;;
39994;SDS011;25686;51.908;10.418;2023-09-08T09:51:18;11.77;;;3.25;;
39994;SDS011;25686;51.908;10.418;2023-09-08T09:53:20;5.53;;;3.15;;
39994;SDS011;25686;51.908;10.418;2023-09-08T09:55:21;5.00;;;3.28;;
39994;SDS011;25686;51.908;10.418;2023-09-08T09:57:22;5.65;;;3.17;;
39994;SDS011;25686;51.908;10.418;2023-09-08T09:59:24;6.05;;;3.25;;
39994;SDS011;25686;51.908;10.418;2023-09-08T10:01:26;4.35;;;3.40;;
39994;SDS011;25686;51.908;10.418;2023-09-08T10:03:28;6.15;;;3.78;;
39994;SDS011;25686;51.908;10.418;2023-09-08T10:05:30;6.18;;;3.20;;
39994;SDS011;25686;51.908;10.418;2023-09-08T10:07:31;10.52;;;3.40;;
39994;SDS011;25686;51.908;10.418;2023-09-08T10:09:32;6.03;;;3.28;;
39994;SDS011;25686;51.908;10.418;2023-09-08T10:11:47;9.30;;;3.42;;
39994;SDS011;25686;51.908;10.418;2023-09-08T10:13:50;9.38;;;3.13;;
39994;SDS011;25686;51.908;10.418;2023-09-08T10:15:51;9.55;;;3.00;;
39994;SDS011;25686;51.908;10.418;2023-09-08T10:17:53;5.18;;;3.20;;
39994;SDS011;25686;51.908;10.418;2023-09-08T10:19:56;14.82;;;3.53;;
39994;SDS011;25686;51.908;10.418;2023-09-08T10:21:59;6.85;;;3.60;;
39994;SDS011;25686;51.908;10.418;2023-09-08T10:24:03;9.60;;;3.28;;
39994;SDS011;25686;51.908;10.418;2023-09-08T10:26:11;11.48;;;3.38;;
39994;SDS011;25686;51.908;10.418;2023-09-08T10:28:12;10.27;;;3.10;;
39994;SDS011;25686;51.908;10.418;2023-09-08T10:30:14;3.97;;;3.03;;
39994;SDS011;25686;51.908;10.418;2023-09-08T10:32:16;11.60;;;3.33;;
39994;SDS011;25686;51.908;10.418;2023-09-08T10:34:18;6.20;;;2.90;;
39994;SDS011;25686;51.908;10.418;2023-09-08T10:36:19;5.00;;;2.60;;
39994;SDS011;25686;51.908;10.418;2023-09-08T10:38:23;4.40;;;2.75;;
39994;SDS011;25686;51.908;10.418;2023-09-08T10:40:25;3.95;;;2.72;;
39994;SDS011;25686;51.908;10.418;2023-09-08T10:42:27;4.65;;;3.10;;
39994;SDS011;25686;51.908;10.418;2023-09-08T10:44:29;13.10;;;3.20;;
39994;SDS011;25686;51.908;10.418;2023-09-08T10:46:32;4.60;;;2.90;;
39994;SDS011;25686;51.908;10.418;2023-09-08T10:48:44;5.03;;;2.85;;
39994;SDS011;25686;51.908;10.418;2023-09-08T10:50:45;3.30;;;3.00;;
39994;SDS011;25686;51.908;10.418;2023-09-08T10:53:03;4.40;;;3.00;;
39994;SDS011;25686;51.908;10.418;2023-09-08T10:55:04;6.70;;;3.15;;
39994;SDS011;25686;51.908;10.418;2023-09-08T10:57:08;6.53;;;3.10;;
39994;SDS011;25686;51.908;10.418;2023-09-08T10:59:13;5.20;;;2.90;;
39994;SDS011;25686;51.908;10.418;2023-09-08T11:01:17;8.52;;;2.90;;
39994;SDS011;25686;51.908;10.418;2023-09-08T11:03:25;5.25;;;2.85;;
39994;SDS011;25686;51.908;10.418;2023-09-08T11:05:27;3.22;;;2.88;;
39994;SDS011;25686;51.908;10.418;2023-09-08T11:07:28;5.75;;;2.88;;
39994;SDS011;25686;51.908;10.418;2023-09-08T11:09:29;4.88;;;2.70;;
39994;SDS011;25686;51.908;10.418;2023-09-08T11:11:35;6.20;;;2.90;;
39994;SDS011;25686;51.908;10.418;2023-09-08T11:13:36;6.63;;;3.00;;
39994;SDS011;25686;51.908;10.418;2023-09-08T11:15:39;6.50;;;2.70;;
39994;SDS011;25686;51.908;10.418;2023-09-08T11:17:40;6.60;;;3.20;;
39994;SDS011;25686;51.908;10.418;2023-09-08T11:19:42;3.10;;;2.60;;
39994;SDS011;25686;51.908;10.418;2023-09-08T11:21:43;4.80;;;3.20;;
39994;SDS011;25686;51.908;10.418;2023-09-08T11:23:44;5.93;;;3.00;;
39994;SDS011;25686;51.908;10.418;2023-09-08T11:25:45;4.22;;;3.15;;
39994;SDS011;25686;51.908;10.418;2023-09-08T11:27:47;8.93;;;3.58;;
39994;SDS011;25686;51.908;10.418;2023-09-08T11:29:50;6.85;;;3.75;;
39994;SDS011;25686;51.908;10.418;2023-09-08T11:31:51;9.88;;;3.92;;
39994;SDS011;25686;51.908;10.418;2023-09-08T11:33:54;5.28;;;3.67;;
39994;SDS011;25686;51.908;10.418;2023-09-08T11:35:56;7.75;;;3.83;;
39994;SDS011;25686;51.908;10.418;2023-09-08T11:37:58;8.40;;;4.15;;
39994;SDS011;25686;51.908;10.418;2023-09-08T11:40:01;4.85;;;3.90;;
39994;SDS011;25686;51.908;10.418;2023-09-08T11:42:03;7.75;;;4.20;;
39994;SDS011;25686;51.908;10.418;2023-09-08T11:44:04;5.45;;;3.90;;
39994;SDS011;25686;51.908;10.418;2023-09-08T11:46:05;7.40;;;4.00;;
39994;SDS011;25686;51.908;10.418;2023-09-08T11:48:06;6.30;;;3.95;;
39994;SDS011;25686;51.908;10.418;2023-09-08T11:50:07;8.98;;;4.00;;
39994;SDS011;25686;51.908;10.418;2023-09-08T11:52:09;9.10;;;3.60;;
39994;SDS011;25686;51.908;10.418;2023-09-08T11:54:10;5.25;;;4.03;;
39994;SDS011;25686;51.908;10.418;2023-09-08T11:56:11;5.43;;;3.50;;
39994;SDS011;25686;51.908;10.418;2023-09-08T11:58:12;9.82;;;3.53;;
39994;SDS011;25686;51.908;10.418;2023-09-08T12:00:15;6.13;;;4.00;;
39994;SDS011;25686;51.908;10.418;2023-09-08T12:02:17;6.85;;;3.80;;